Time;durP1;ratioP1;P1;durP2;ratioP2;P2;SDS_P1;SDS_P2;PMS_P1;PMS_P2;Temp;Humidity;BMP_temperature;BMP_pressure;BME280_temperature;BME280_humidity;BME280_pressure;Samples;Min_cycle;Max_cycle;Signal;HPM_P1;HPM_P2
2023/03/07 00:00:20;;;;;;;11.90;4.70;;;;;;;1.41;61.96;99628.20;105421;1254;60448;-54
2023/03/07 00:02:50;;;;;;;13.00;4.60;;;;;;;1.42;62.02;99627.45;105564;1257;61738;-54
2023/03/07 00:05:18;;;;;;;12.40;5.60;;;;;;;1.42;62.13;99622.80;105558;1254;73949;-57
2023/03/07 00:07:45;;;;;;;13.50;5.30;;;;;;;1.41;62.09;99622.33;105454;1254;71223;-55
2023/03/07 00:10:12;;;;;;;12.70;5.20;;;;;;;1.38;62.03;99617.33;105430;1257;73492;-55
2023/03/07 00:12:41;;;;;;;12.80;5.40;;;;;;;1.34;61.91;99614.10;105438;1253;60562;-55
2023/03/07 00:15:09;;;;;;;16.60;5.90;;;;;;;1.29;61.98;99612.29;105553;1257;61088;-55
2023/03/07 00:17:37;;;;;;;16.00;6.00;;;;;;;1.24;62.07;99608.91;105510;1255;74889;-53
2023/03/07 00:20:06;;;;;;;12.00;6.20;;;;;;;1.19;62.03;99604.69;105678;1256;70230;-55
2023/03/07 00:22:33;;;;;;;14.00;5.70;;;;;;;1.13;62.10;99602.98;105484;1253;73249;-54
2023/03/07 00:25:04;;;;;;;15.20;5.80;;;;;;;1.06;62.10;99603.67;105565;1254;60900;-54
2023/03/07 00:27:32;;;;;;;10.80;5.10;;;;;;;0.98;62.23;99603.40;105601;1254;61185;-56
2023/03/07 00:30:03;;;;;;;13.90;6.10;;;;;;;0.90;62.27;99598.11;105503;1257;74868;-55
2023/03/07 00:32:31;;;;;;;14.70;5.80;;;;;;;0.84;62.24;99595.48;105570;1257;70707;-55
2023/03/07 00:34:58;;;;;;;12.00;5.40;;;;;;;0.79;62.30;99593.17;105492;1257;73432;-54
2023/03/07 00:37:25;;;;;;;14.00;5.10;;;;;;;0.74;62.47;99591.02;105421;1254;60547;-55
2023/03/07 00:39:59;;;;;;;13.20;5.40;;;;;;;0.71;62.64;99586.98;105433;1253;61649;-55
2023/03/07 00:42:26;;;;;;;14.10;5.40;;;;;;;0.70;62.86;99586.19;105520;1256;74722;-55
2023/03/07 00:44:53;;;;;;;11.80;5.40;;;;;;;0.71;62.96;99580.97;105567;1258;71205;-55
2023/03/07 00:47:20;;;;;;;15.80;6.20;;;;;;;0.71;63.15;99583.75;105465;1253;73603;-53
2023/03/07 00:49:47;;;;;;;15.60;5.10;;;;;;;0.71;63.26;99579.25;105532;1254;60427;-54
2023/03/07 00:52:14;;;;;;;10.70;3.70;;;;;;;0.80;63.28;99577.42;105592;1257;61304;-53
2023/03/07 00:54:41;;;;;;;10.60;4.10;;;;;;;0.93;63.04;99571.21;105598;1255;74956;-54
2023/03/07 00:57:09;;;;;;;15.10;5.90;;;;;;;1.03;63.09;99568.95;105505;1257;70313;-54
2023/03/07 00:59:37;;;;;;;10.60;3.20;;;;;;;1.13;62.95;99565.13;105485;1259;73747;-54
2023/03/07 01:02:04;;;;;;;10.20;4.60;;;;;;;1.22;63.09;99563.23;105470;1254;64403;-54
2023/03/07 01:04:32;;;;;;;11.10;4.30;;;;;;;1.34;63.08;99562.58;105504;1257;61181;-54
2023/03/07 01:07:00;;;;;;;12.70;5.50;;;;;;;1.45;63.29;99559.90;105383;1259;74806;-54
2023/03/07 01:09:30;;;;;;;8.90;4.60;;;;;;;1.56;63.13;99553.41;105436;1254;72501;-55
2023/03/07 01:11:58;;;;;;;11.50;4.90;;;;;;;1.62;62.88;99550.64;105493;1255;73831;-55
2023/03/07 01:14:25;;;;;;;10.70;4.70;;;;;;;1.64;62.63;99545.04;105562;1258;60425;-53
2023/03/07 01:16:53;;;;;;;13.20;6.20;;;;;;;1.62;62.47;99539.77;105487;1253;61366;-53
2023/03/07 01:19:20;;;;;;;11.10;5.20;;;;;;;1.61;62.50;99536.05;105532;1257;74596;-54
2023/03/07 01:21:47;;;;;;;12.30;5.40;;;;;;;1.59;62.32;99531.30;105489;1253;71087;-54
2023/03/07 01:24:14;;;;;;;11.50;5.10;;;;;;;1.54;62.26;99526.91;105453;1257;73455;-54
2023/03/07 01:26:42;;;;;;;13.70;5.80;;;;;;;1.48;62.21;99526.23;105558;1253;60619;-53
2023/03/07 01:29:09;;;;;;;15.10;6.60;;;;;;;1.43;62.37;99527.35;105538;1254;61131;-53
2023/03/07 01:31:36;;;;;;;15.70;7.10;;;;;;;1.39;62.33;99526.55;105445;1262;73761;-54
2023/03/07 01:34:05;;;;;;;12.20;5.20;;;;;;;1.34;62.52;99523.73;105593;1253;71424;-53
2023/03/07 01:36:36;;;;;;;13.00;4.90;;;;;;;1.31;62.51;99522.98;105485;1256;72627;-53
2023/03/07 01:39:06;;;;;;;15.20;6.50;;;;;;;1.26;62.49;99519.30;105500;1254;60432;-53
2023/03/07 01:41:35;;;;;;;11.40;4.40;;;;;;;1.21;62.50;99514.06;105557;1254;60408;-54
2023/03/07 01:44:04;;;;;;;13.20;5.50;;;;;;;1.16;62.47;99510.39;105569;1257;74540;-53
2023/03/07 01:46:38;;;;;;;11.30;5.40;;;;;;;1.10;62.62;99506.85;105511;1253;71303;-53
2023/03/07 01:49:15;;;;;;;13.10;4.90;;;;;;;1.08;62.80;99503.72;105549;1253;74059;-53
2023/03/07 01:51:45;;;;;;;12.50;4.80;;;;;;;1.07;62.82;99498.95;105678;1254;61879;-54
2023/03/07 01:54:12;;;;;;;8.60;3.70;;;;;;;1.10;62.70;99495.84;105519;1259;60914;-53
2023/03/07 01:56:39;;;;;;;11.00;4.40;;;;;;;1.18;62.63;99494.73;105518;1254;74592;-54
2023/03/07 01:59:07;;;;;;;10.60;4.10;;;;;;;1.26;62.60;99495.44;105369;1253;71190;-53
2023/03/07 02:01:34;;;;;;;12.70;4.30;;;;;;;1.37;62.69;99492.46;105564;1253;73583;-53
2023/03/07 02:04:26;;;;;;;10.90;4.70;;;;;;;1.48;62.65;99489.58;105407;1259;61101;-53
2023/03/07 02:06:53;;;;;;;12.70;4.80;;;;;;;1.60;62.47;99488.73;105526;1254;60573;-54
2023/03/07 02:09:23;;;;;;;11.10;4.90;;;;;;;1.68;62.46;99485.13;105476;1259;74357;-54
2023/03/07 02:11:50;;;;;;;13.20;5.50;;;;;;;1.72;62.17;99481.68;105363;1262;71185;-55
2023/03/07 02:14:18;;;;;;;13.80;5.60;;;;;;;1.71;61.98;99479.29;105466;1259;72477;-53
2023/03/07 02:16:45;;;;;;;11.30;5.70;;;;;;;1.68;61.78;99472.91;105616;1255;60579;-53
2023/03/07 02:19:20;;;;;;;11.20;5.40;;;;;;;1.62;61.72;99476.31;105469;1253;60409;-54
2023/03/07 02:22:11;;;;;;;13.50;6.10;;;;;;;1.55;61.58;99468.98;105695;1256;65421;-54
2023/03/07 02:24:42;;;;;;;12.60;5.90;;;;;;;1.47;61.59;99467.17;105077;1253;489450;-54
2023/03/07 02:39:29;;;;;;;11.70;5.20;;;;;;;1.53;61.38;99460.06;103376;1285;603430;-54
2023/03/07 02:42:02;;;;;;;11.20;5.70;;;;;;;1.84;60.36;99452.05;104812;1272;101211;-54
2023/03/07 02:44:37;;;;;;;13.20;5.20;;;;;;;1.76;60.36;99453.57;105012;1265;59375;-53
2023/03/07 02:47:08;;;;;;;14.70;5.90;;;;;;;1.66;60.47;99455.19;105130;1265;64671;-55
2023/03/07 02:49:37;;;;;;;13.70;6.70;;;;;;;1.53;60.59;99451.96;105083;1268;71703;-55
2023/03/07 02:52:06;;;;;;;14.30;6.30;;;;;;;1.43;60.81;99452.36;105022;1273;73718;-54
2023/03/07 02:54:35;;;;;;;14.10;6.60;;;;;;;1.34;60.87;99448.91;105053;1264;60620;-54
2023/03/07 02:57:04;;;;;;;14.40;5.30;;;;;;;1.24;60.96;99447.91;104776;1270;61009;-54
2023/03/07 02:59:33;;;;;;;10.70;4.90;;;;;;;1.15;61.15;99443.07;105149;1269;73203;-54
2023/03/07 03:02:03;;;;;;;15.40;6.60;;;;;;;1.07;61.28;99440.91;105127;1269;71083;-53
2023/03/07 03:04:31;;;;;;;14.70;5.60;;;;;;;1.01;61.27;99438.32;104784;1270;73688;-54
2023/03/07 03:06:59;;;;;;;14.60;6.50;;;;;;;0.93;61.33;99436.66;105085;1264;60490;-54
2023/03/07 03:09:28;;;;;;;18.50;6.50;;;;;;;0.88;61.54;99435.73;104835;1273;60518;-54
2023/03/07 03:11:58;;;;;;;22.20;8.10;;;;;;;0.82;61.73;99437.95;104988;1269;73741;-55
2023/03/07 03:14:28;;;;;;;11.30;4.80;;;;;;;0.80;61.87;99434.44;105055;1268;71807;-54
2023/03/07 03:16:57;;;;;;;13.20;4.90;;;;;;;0.82;61.79;99432.08;105001;1267;73640;-55
2023/03/07 03:19:31;;;;;;;11.60;5.70;;;;;;;0.90;61.72;99429.60;104957;1269;61932;-55
2023/03/07 03:22:00;;;;;;;10.80;5.10;;;;;;;0.98;61.83;99431.58;105072;1270;61282;-55
2023/03/07 03:24:31;;;;;;;12.60;4.60;;;;;;;1.05;61.96;99429.97;105086;1267;74381;-53
2023/03/07 03:27:00;;;;;;;8.90;4.20;;;;;;;1.15;62.03;99428.89;105110;1264;70800;-54
2023/03/07 03:29:29;;;;;;;14.70;4.80;;;;;;;1.23;61.82;99424.80;105146;1269;72668;-54
2023/03/07 03:32:00;;;;;;;14.30;5.60;;;;;;;1.25;61.75;99416.38;104941;1269;60302;-55
2023/03/07 03:34:29;;;;;;;12.30;5.50;;;;;;;1.25;61.77;99416.04;105210;1263;61329;-55
2023/03/07 03:36:58;;;;;;;13.50;5.70;;;;;;;1.27;61.91;99419.02;105043;1266;73875;-54
2023/03/07 03:39:27;;;;;;;16.10;5.80;;;;;;;1.28;61.75;99418.48;104729;1270;71387;-55
2023/03/07 03:41:57;;;;;;;17.60;6.00;;;;;;;1.25;61.72;99416.17;104708;1267;73357;-54
2023/03/07 03:44:26;;;;;;;9.40;4.40;;;;;;;1.24;61.68;99421.48;104939;1264;60336;-54
2023/03/07 03:46:56;;;;;;;11.60;4.50;;;;;;;1.21;61.59;99423.02;104999;1269;61071;-55
2023/03/07 03:49:26;;;;;;;14.60;5.50;;;;;;;1.17;61.51;99418.05;104958;1269;74001;-55
2023/03/07 03:51:54;;;;;;;13.30;6.90;;;;;;;1.13;61.67;99415.86;104941;1268;70474;-55
2023/03/07 03:54:23;;;;;;;18.40;6.30;;;;;;;1.10;61.79;99416.89;104889;1269;73511;-54
2023/03/07 03:56:54;;;;;;;12.30;6.20;;;;;;;1.08;61.79;99419.94;104969;1270;60592;-54
2023/03/07 03:59:22;;;;;;;12.40;5.30;;;;;;;1.06;61.92;99416.92;104798;1279;60200;-54
2023/03/07 04:01:51;;;;;;;12.20;6.60;;;;;;;1.04;61.87;99420.52;104734;1270;73688;-55
2023/03/07 04:04:20;;;;;;;13.40;5.50;;;;;;;1.01;62.07;99416.00;104924;1270;71011;-54
2023/03/07 04:06:50;;;;;;;13.30;5.30;;;;;;;1.00;62.13;99412.77;104945;1268;71808;-55
2023/03/07 04:09:19;;;;;;;11.70;4.70;;;;;;;0.98;62.23;99412.91;104928;1264;60571;-55
2023/03/07 04:11:49;;;;;;;15.10;6.50;;;;;;;0.97;62.40;99413.31;104980;1264;61309;-55
2023/03/07 04:14:17;;;;;;;13.70;6.60;;;;;;;0.98;62.48;99413.11;105351;1263;71775;-56
2023/03/07 04:16:53;;;;;;;14.70;6.30;;;;;;;0.98;62.54;99418.11;105459;1258;71227;-53
2023/03/07 04:19:21;;;;;;;13.70;6.40;;;;;;;0.99;62.53;99413.88;105478;1260;73452;-54
2023/03/07 04:21:51;;;;;;;9.70;4.10;;;;;;;1.07;62.53;99405.84;105414;1259;61858;-54
2023/03/07 04:24:20;;;;;;;12.00;5.60;;;;;;;1.20;62.39;99408.77;105486;1258;60231;-55
2023/03/07 04:26:49;;;;;;;10.40;5.30;;;;;;;1.34;62.47;99411.71;105242;1264;73012;-54
2023/03/07 04:29:17;;;;;;;11.80;4.80;;;;;;;1.50;62.34;99404.77;105434;1264;71394;-54
2023/03/07 04:32:02;;;;;;;10.00;5.20;;;;;;;1.66;61.99;99399.90;105465;1258;65030;-53
2023/03/07 04:34:32;;;;;;;13.60;5.50;;;;;;;1.74;61.63;99401.80;105469;1259;60705;-53
2023/03/07 04:37:00;;;;;;;19.30;6.20;;;;;;;1.79;61.50;99401.86;105415;1258;61019;-53
2023/03/07 04:39:30;;;;;;;10.00;5.20;;;;;;;1.84;61.29;99402.09;105400;1258;73016;-54
2023/03/07 04:41:59;;;;;;;12.30;5.40;;;;;;;1.89;61.17;99400.09;105296;1258;71282;-53
2023/03/07 04:44:35;;;;;;;14.20;4.50;;;;;;;1.94;60.96;99398.18;105543;1259;65315;-53
2023/03/07 04:47:04;;;;;;;13.60;5.60;;;;;;;1.97;60.59;99394.38;105245;1257;60360;-51
2023/03/07 04:49:38;;;;;;;9.80;4.30;;;;;;;1.99;60.17;99393.39;105510;1257;59660;-52
2023/03/07 04:52:07;;;;;;;20.90;4.40;;;;;;;2.01;60.00;99394.45;105421;1263;74136;-52
2023/03/07 04:54:36;;;;;;;11.30;5.00;;;;;;;2.03;59.97;99393.54;105424;1257;71260;-51
2023/03/07 04:57:05;;;;;;;14.70;6.00;;;;;;;2.06;59.77;99392.15;105486;1260;73510;-50
2023/03/07 04:59:42;;;;;;;7.70;3.40;;;;;;;2.07;59.66;99389.84;105062;1257;59640;-51
2023/03/07 05:02:11;;;;;;;12.60;4.20;;;;;;;2.09;59.60;99389.37;105353;1261;60997;-50
2023/03/07 05:04:41;;;;;;;11.10;4.70;;;;;;;2.11;59.51;99382.83;105390;1257;74036;-51
2023/03/07 05:07:10;;;;;;;9.40;4.00;;;;;;;2.14;59.60;99379.19;105240;1257;71341;-52
2023/03/07 05:09:38;;;;;;;10.30;4.10;;;;;;;2.18;59.46;99380.17;105281;1258;73059;-50
2023/03/07 05:12:11;;;;;;;12.70;4.80;;;;;;;2.20;59.37;99378.45;105415;1257;60276;-50
2023/03/07 05:14:40;;;;;;;10.60;3.90;;;;;;;2.25;59.19;99379.58;105266;1257;61228;-50
2023/03/07 05:17:09;;;;;;;7.50;3.60;;;;;;;2.28;59.08;99379.04;105501;1260;73970;-51
2023/03/07 05:19:38;;;;;;;10.90;3.90;;;;;;;2.32;58.80;99375.45;105477;1257;70879;-50
2023/03/07 05:22:26;;;;;;;12.60;4.10;;;;;;;2.48;58.50;99377.96;105375;1258;75049;-50
2023/03/07 05:24:55;;;;;;;9.60;4.10;;;;;;;2.64;58.28;99382.30;105369;1261;61963;-50
2023/03/07 05:27:24;;;;;;;11.50;4.10;;;;;;;2.77;57.67;99383.23;105420;1258;61465;-51
2023/03/07 05:29:52;;;;;;;8.70;3.40;;;;;;;2.85;57.38;99379.94;105348;1262;73990;-50
2023/03/07 05:32:20;;;;;;;12.60;4.70;;;;;;;2.91;57.42;99381.27;105504;1257;71238;-50
2023/03/07 05:34:49;;;;;;;14.70;6.60;;;;;;;2.97;57.12;99383.19;105387;1264;73681;-50
2023/03/07 05:37:21;;;;;;;11.60;4.30;;;;;;;3.00;56.92;99385.73;105389;1257;60508;-49
2023/03/07 05:39:50;;;;;;;13.00;7.10;;;;;;;3.03;56.65;99396.66;105239;1258;61325;-49
2023/03/07 05:42:19;;;;;;;9.30;3.90;;;;;;;3.03;56.63;99400.63;105421;1261;73831;-52
2023/03/07 05:44:48;;;;;;;7.20;3.00;;;;;;;3.04;56.49;99403.14;105311;1257;70990;-49
2023/03/07 05:47:17;;;;;;;13.90;4.50;;;;;;;3.05;56.46;99399.48;105105;1257;73636;-49
2023/03/07 05:49:47;;;;;;;9.50;4.40;;;;;;;3.04;56.13;99396.92;105387;1257;60248;-49
2023/03/07 05:52:16;;;;;;;10.40;3.70;;;;;;;3.03;55.98;99400.98;105474;1257;61324;-49
2023/03/07 05:54:44;;;;;;;12.90;4.40;;;;;;;3.05;56.07;99404.68;105304;1257;73672;-49
2023/03/07 05:57:12;;;;;;;8.90;3.50;;;;;;;3.06;55.88;99405.80;105505;1258;71008;-48
2023/03/07 05:59:41;;;;;;;10.10;4.20;;;;;;;3.09;56.07;99409.09;105464;1261;73455;-49
2023/03/07 06:02:09;;;;;;;11.10;5.60;;;;;;;3.13;56.10;99403.65;105429;1257;60285;-48
2023/03/07 06:04:38;;;;;;;9.50;3.40;;;;;;;3.15;55.97;99407.32;105452;1257;60409;-49
2023/03/07 06:07:06;;;;;;;11.40;5.00;;;;;;;3.18;55.96;99409.36;105307;1262;74028;-49
2023/03/07 06:09:37;;;;;;;9.60;3.90;;;;;;;3.22;55.98;99409.48;105190;1258;71433;-50
2023/03/07 06:12:07;;;;;;;13.50;6.30;;;;;;;3.26;56.16;99411.48;105323;1258;73595;-50
2023/03/07 06:14:36;;;;;;;16.40;10.20;;;;;;;3.29;56.16;99409.70;105349;1258;59669;-50
2023/03/07 06:17:05;;;;;;;8.10;3.40;;;;;;;3.31;56.07;99412.87;105405;1260;60279;-50
2023/03/07 06:19:34;;;;;;;10.10;4.30;;;;;;;3.32;56.25;99419.70;105388;1258;74264;-51
2023/03/07 06:22:07;;;;;;;15.40;3.90;;;;;;;3.34;56.57;99419.05;105558;1257;71219;-49
2023/03/07 06:24:37;;;;;;;11.70;5.80;;;;;;;3.37;56.84;99423.92;105240;1257;73375;-50
2023/03/07 06:27:05;;;;;;;9.00;4.10;;;;;;;3.40;57.18;99426.13;105348;1257;60371;-50
2023/03/07 06:29:35;;;;;;;10.10;3.70;;;;;;;3.45;57.52;99432.56;105531;1260;61037;-50
2023/03/07 06:32:04;;;;;;;13.60;5.60;;;;;;;3.58;57.62;99430.02;105356;1258;72999;-50
2023/03/07 06:34:33;;;;;;;16.80;10.90;;;;;;;3.66;58.10;99433.64;105275;1261;71108;-50
2023/03/07 06:37:01;;;;;;;9.20;3.70;;;;;;;3.65;58.68;99428.69;105437;1260;73951;-50
2023/03/07 06:39:29;;;;;;;12.20;4.80;;;;;;;3.60;59.17;99429.85;105414;1257;59834;-50
2023/03/07 06:41:59;;;;;;;11.10;4.50;;;;;;;3.55;59.97;99427.40;105492;1258;60018;-50
2023/03/07 06:44:27;;;;;;;12.30;5.40;;;;;;;3.50;60.37;99426.52;105583;1260;73987;-49
2023/03/07 06:46:57;;;;;;;11.10;4.50;;;;;;;3.47;60.78;99424.48;105460;1257;70883;-51
2023/03/07 06:49:26;;;;;;;10.40;4.10;;;;;;;3.45;61.40;99422.04;105429;1258;73402;-52
2023/03/07 06:51:54;;;;;;;15.60;10.80;;;;;;;3.42;61.79;99420.42;105320;1257;60443;-50
2023/03/07 06:54:23;;;;;;;11.10;4.30;;;;;;;3.43;62.26;99412.75;105239;1262;61554;-51
2023/03/07 06:56:51;;;;;;;9.80;4.20;;;;;;;3.49;62.49;99406.64;105514;1257;74797;-50
2023/03/07 06:59:21;;;;;;;9.00;3.50;;;;;;;3.60;62.77;99404.23;105459;1258;71215;-51
2023/03/07 07:01:49;;;;;;;10.80;4.90;;;;;;;3.68;63.00;99402.23;105352;1263;73637;-50
2023/03/07 07:04:18;;;;;;;8.50;3.70;;;;;;;3.70;63.38;99402.67;105480;1260;60472;-50
2023/03/07 07:06:52;;;;;;;15.70;9.90;;;;;;;3.67;63.70;99400.44;105398;1258;60945;-51
2023/03/07 07:09:21;;;;;;;9.20;4.40;;;;;;;3.66;63.93;99394.61;105315;1260;74688;-51
2023/03/07 07:11:50;;;;;;;14.40;10.00;;;;;;;3.66;64.32;99396.33;105445;1258;71310;-51
2023/03/07 07:14:19;;;;;;;9.60;3.50;;;;;;;3.65;64.55;99397.09;105329;1256;73306;-50
2023/03/07 07:16:47;;;;;;;8.90;4.20;;;;;;;3.72;64.66;99396.30;105381;1257;61199;-50
2023/03/07 07:19:16;;;;;;;11.30;4.10;;;;;;;3.77;64.79;99397.85;105531;1257;61164;-48
2023/03/07 07:21:45;;;;;;;9.60;4.50;;;;;;;3.77;64.99;99398.55;105280;1259;73504;-50
2023/03/07 07:24:14;;;;;;;12.00;5.90;;;;;;;3.73;65.32;99397.27;105413;1260;70292;-50
2023/03/07 07:40:25;;;;;;;12.30;5.00;;;;;;;4.09;65.56;99391.67;102288;1298;604306;-54
2023/03/07 07:42:54;;;;;;;20.60;10.30;;;;;;;4.58;64.66;99386.73;104660;1272;114633;-52
2023/03/07 07:45:33;;;;;;;15.60;10.70;;;;;;;4.57;64.58;99381.59;104793;1267;59356;-53
2023/03/07 07:48:04;;;;;;;8.80;4.10;;;;;;;4.51;64.68;99380.75;104596;1267;64512;-53
2023/03/07 07:50:32;;;;;;;13.60;10.60;;;;;;;4.43;64.85;99379.59;104728;1269;62375;-53
2023/03/07 07:53:01;;;;;;;17.70;11.80;;;;;;;4.36;65.09;99379.23;104661;1270;64878;-55
2023/03/07 07:55:31;;;;;;;12.80;5.20;;;;;;;4.25;65.27;99378.92;104851;1267;59282;-55
2023/03/07 07:58:00;;;;;;;10.20;4.70;;;;;;;4.15;65.47;99377.89;104716;1267;59366;-54
2023/03/07 08:00:30;;;;;;;11.10;5.00;;;;;;;4.05;65.79;99377.23;104619;1270;71232;-54
2023/03/07 08:02:59;;;;;;;9.50;4.60;;;;;;;3.95;66.03;99379.46;104697;1267;62472;-55
2023/03/07 08:05:28;;;;;;;7.80;3.80;;;;;;;3.88;66.23;99379.95;104886;1267;64984;-54
2023/03/07 08:07:56;;;;;;;10.70;4.00;;;;;;;3.88;66.38;99380.79;104687;1269;59758;-55
2023/03/07 08:10:25;;;;;;;16.30;10.90;;;;;;;3.89;66.44;99378.45;104699;1270;59553;-55
2023/03/07 08:12:53;;;;;;;14.00;6.00;;;;;;;3.94;66.49;99387.83;104711;1268;65373;-53
2023/03/07 08:15:22;;;;;;;12.60;4.80;;;;;;;3.96;66.68;99387.02;104624;1267;62316;-53
2023/03/07 08:17:53;;;;;;;17.10;10.60;;;;;;;3.93;66.81;99384.98;104653;1270;63979;-53
2023/03/07 08:20:28;;;;;;;8.40;4.10;;;;;;;3.92;66.86;99386.95;104585;1267;59766;-52
2023/03/07 08:22:56;;;;;;;8.30;4.10;;;;;;;3.90;67.02;99385.00;104665;1270;61600;-53
2023/03/07 08:25:24;;;;;;;9.60;3.80;;;;;;;3.85;67.02;99391.21;104576;1267;74123;-54
2023/03/07 08:27:54;;;;;;;9.50;4.20;;;;;;;3.83;67.24;99393.81;104710;1266;71633;-54
2023/03/07 08:30:26;;;;;;;9.80;4.40;;;;;;;3.81;67.47;99394.14;104588;1267;64863;-54
2023/03/07 08:33:00;;;;;;;9.50;4.10;;;;;;;3.81;67.59;99396.89;104659;1267;59609;-54
2023/03/07 08:35:29;;;;;;;9.40;3.70;;;;;;;3.86;67.51;99402.07;104994;1266;59690;-54
2023/03/07 08:38:00;;;;;;;18.70;10.00;;;;;;;3.95;67.47;99404.30;104712;1270;65185;-54
2023/03/07 08:40:30;;;;;;;10.80;4.40;;;;;;;4.01;67.35;99401.23;104820;1267;62836;-54
2023/03/07 08:42:58;;;;;;;8.70;4.00;;;;;;;4.04;67.43;99398.09;104649;1267;65046;-54
2023/03/07 08:45:27;;;;;;;15.60;5.40;;;;;;;4.06;67.46;99399.38;104651;1267;60591;-53
2023/03/07 08:47:58;;;;;;;12.90;9.30;;;;;;;4.09;67.71;99397.59;104773;1267;61339;-54
2023/03/07 08:50:27;;;;;;;9.10;3.60;;;;;;;4.15;67.76;99392.53;104688;1267;73697;-54
2023/03/07 08:52:56;;;;;;;9.20;4.70;;;;;;;4.21;67.70;99388.08;104683;1270;71462;-54
2023/03/07 08:55:24;;;;;;;10.80;5.00;;;;;;;4.27;67.58;99387.69;104626;1266;72411;-53
2023/03/07 08:57:52;;;;;;;14.30;9.70;;;;;;;4.39;67.51;99387.56;104599;1267;61856;-53
2023/03/07 09:00:21;;;;;;;7.40;3.80;;;;;;;4.53;67.26;99391.59;104729;1268;61340;-53
2023/03/07 09:02:49;;;;;;;7.90;3.50;;;;;;;4.69;67.33;99388.71;104873;1267;74006;-54
2023/03/07 09:05:17;;;;;;;14.60;11.00;;;;;;;4.84;67.40;99389.01;104754;1271;71211;-55
2023/03/07 09:07:45;;;;;;;10.40;4.40;;;;;;;4.99;67.04;99386.02;104628;1270;73280;-54
2023/03/07 09:10:18;;;;;;;16.70;10.80;;;;;;;5.07;66.62;99384.79;104711;1267;59658;-54
2023/03/07 09:12:47;;;;;;;11.80;5.90;;;;;;;5.17;66.70;99381.62;104722;1270;61325;-55
2023/03/07 09:15:17;;;;;;;10.70;5.00;;;;;;;5.28;66.73;99387.91;104779;1270;74015;-52
2023/03/07 09:17:45;;;;;;;8.00;4.60;;;;;;;5.31;65.90;99388.94;104635;1268;69973;-53
2023/03/07 09:20:16;;;;;;;13.50;8.40;;;;;;;5.34;65.22;99384.16;104579;1267;73719;-53
2023/03/07 09:22:45;;;;;;;15.60;9.80;;;;;;;5.40;65.08;99385.11;104671;1265;61401;-52
2023/03/07 09:25:14;;;;;;;12.10;4.30;;;;;;;5.46;65.00;99382.45;104784;1268;62652;-55
2023/03/07 09:27:44;;;;;;;9.10;3.60;;;;;;;5.49;65.02;99384.14;104649;1272;74492;-53
2023/03/07 09:30:14;;;;;;;9.20;4.30;;;;;;;5.50;64.78;99387.90;104724;1267;72225;-53
2023/03/07 09:32:43;;;;;;;12.80;9.20;;;;;;;5.47;64.77;99391.75;104573;1269;73678;-53
2023/03/07 09:35:12;;;;;;;12.60;9.20;;;;;;;5.45;64.45;99401.63;104572;1266;60422;-54
2023/03/07 09:37:41;;;;;;;10.20;4.90;;;;;;;5.40;64.18;99402.52;104636;1267;61296;-53
2023/03/07 09:40:17;;;;;;;9.20;4.30;;;;;;;5.34;64.15;99405.18;104722;1267;64441;-54
2023/03/07 09:43:06;;;;;;;10.40;4.60;;;;;;;5.33;63.98;99406.70;104651;1267;71039;-54
2023/03/07 09:45:44;;;;;;;13.50;9.50;;;;;;;5.41;64.11;99407.35;104647;1266;65012;-54
2023/03/07 09:48:32;;;;;;;14.70;10.20;;;;;;;5.50;64.11;99413.47;104676;1267;59743;-53
2023/03/07 09:51:20;;;;;;;9.50;4.70;;;;;;;5.55;63.67;99416.41;104748;1267;59694;-53
2023/03/07 09:53:57;;;;;;;12.50;10.10;;;;;;;5.55;63.12;99416.55;104727;1270;65379;-52
2023/03/07 09:56:36;;;;;;;14.10;9.90;;;;;;;5.52;62.95;99421.80;104761;1270;61831;-53
2023/03/07 09:59:09;;;;;;;14.90;4.50;;;;;;;5.48;62.10;99424.04;104698;1267;65017;-53
2023/03/07 10:01:54;;;;;;;15.80;11.00;;;;;;;5.40;61.25;99422.36;104655;1267;59725;-55
2023/03/07 10:04:31;;;;;;;13.30;10.20;;;;;;;5.31;60.85;99421.59;104528;1266;59654;-54
2023/03/07 10:07:01;;;;;;;10.00;4.30;;;;;;;5.24;60.76;99418.34;104573;1267;65444;-53
2023/03/07 10:09:29;;;;;;;11.10;4.80;;;;;;;5.19;61.23;99418.98;104597;1267;71233;-54
2023/03/07 10:12:17;;;;;;;10.60;4.60;;;;;;;5.24;61.06;99417.79;104630;1268;73896;-54
2023/03/07 10:14:55;;;;;;;7.70;4.30;;;;;;;5.32;61.02;99408.46;104702;1268;62074;-55
2023/03/07 10:17:49;;;;;;;14.10;10.50;;;;;;;5.47;60.78;99405.84;104783;1267;59796;-54
2023/03/07 10:20:28;;;;;;;16.60;10.60;;;;;;;5.63;59.78;99407.29;104620;1270;66132;-54
2023/03/07 10:23:15;;;;;;;14.10;10.90;;;;;;;5.68;59.05;99397.48;104643;1265;62372;-53
2023/03/07 10:26:19;;;;;;;9.60;4.30;;;;;;;5.74;58.49;99390.24;104723;1266;65037;-53
2023/03/07 10:28:48;;;;;;;15.30;11.20;;;;;;;5.80;57.16;99386.66;104746;1265;59659;-53
2023/03/07 10:31:28;;;;;;;7.50;3.70;;;;;;;5.88;56.98;99385.92;104608;1265;59998;-53
2023/03/07 10:33:57;;;;;;;15.10;11.20;;;;;;;5.98;56.80;99376.10;105443;1259;72970;-55
2023/03/07 10:36:39;;;;;;;12.20;5.30;;;;;;;6.02;56.66;99370.55;105271;1259;62699;-55
2023/03/07 10:39:32;;;;;;;15.50;11.20;;;;;;;6.11;56.56;99364.42;105289;1259;74387;-54
2023/03/07 10:42:03;;;;;;;15.80;11.00;;;;;;;6.23;55.75;99366.00;105162;1259;59807;-53
2023/03/07 10:44:35;;;;;;;14.50;11.20;;;;;;;6.28;54.18;99371.00;105240;1260;59667;-55
2023/03/07 10:47:04;;;;;;;15.80;11.00;;;;;;;6.32;53.45;99368.58;105104;1265;74154;-53
2023/03/07 10:49:39;;;;;;;15.00;11.00;;;;;;;6.43;53.05;99371.56;105277;1263;71259;-54
2023/03/07 10:52:30;;;;;;;12.30;9.90;;;;;;;6.51;51.57;99371.63;105249;1259;72637;-53
2023/03/07 10:55:33;;;;;;;13.70;10.80;;;;;;;6.51;51.48;99371.77;105094;1259;59676;-53
2023/03/07 10:58:28;;;;;;;14.90;11.30;;;;;;;6.49;51.21;99369.31;105223;1260;59668;-53
2023/03/07 11:00:58;;;;;;;11.40;4.80;;;;;;;6.49;51.66;99366.67;105239;1262;65126;-54
2023/03/07 11:03:30;;;;;;;15.40;10.50;;;;;;;6.51;52.16;99367.77;105149;1259;63054;-53
2023/03/07 11:06:39;;;;;;;9.50;4.30;;;;;;;6.55;51.32;99371.33;105229;1260;64751;-54
2023/03/07 11:09:09;;;;;;;15.40;10.70;;;;;;;6.51;51.27;99365.30;105280;1258;60019;-55
2023/03/07 11:11:40;;;;;;;15.30;10.80;;;;;;;6.50;51.34;99365.23;105340;1259;61288;-54
2023/03/07 11:14:10;;;;;;;11.00;4.10;;;;;;;6.50;51.45;99362.08;105155;1264;73756;-54
2023/03/07 11:16:59;;;;;;;17.80;11.50;;;;;;;6.56;51.91;99366.84;105204;1259;71295;-55
2023/03/07 11:19:42;;;;;;;14.90;10.80;;;;;;;6.61;51.84;99368.36;105081;1258;65100;-55
2023/03/07 11:22:23;;;;;;;13.30;10.30;;;;;;;6.61;51.30;99371.90;105262;1262;59567;-56
2023/03/07 11:24:58;;;;;;;15.00;10.80;;;;;;;6.56;50.99;99375.23;105264;1259;59750;-55
2023/03/07 11:27:35;;;;;;;15.80;11.20;;;;;;;6.47;50.82;99373.13;104990;1259;65577;-55
2023/03/07 11:30:18;;;;;;;15.50;10.80;;;;;;;6.38;50.96;99370.75;105404;1259;62600;-54
2023/03/07 11:33:18;;;;;;;16.50;11.60;;;;;;;6.31;51.25;99373.40;105251;1259;63801;-54
2023/03/07 11:36:15;;;;;;;10.70;5.10;;;;;;;6.24;51.05;99370.97;105284;1259;59689;-53
2023/03/07 11:38:50;;;;;;;18.30;10.70;;;;;;;6.19;51.41;99369.39;105232;1259;59718;-54
2023/03/07 11:41:30;;;;;;;13.50;10.00;;;;;;;6.21;51.34;99368.60;105148;1259;64329;-54
2023/03/07 11:44:32;;;;;;;15.30;9.60;;;;;;;6.22;51.46;99368.48;105326;1259;62642;-54
2023/03/07 11:47:24;;;;;;;9.80;4.30;;;;;;;6.28;51.54;99368.00;105364;1260;64960;-54
2023/03/07 11:49:56;;;;;;;11.50;4.10;;;;;;;6.36;51.16;99368.23;105311;1259;59664;-54
2023/03/07 11:52:33;;;;;;;10.70;5.80;;;;;;;6.39;50.60;99372.00;105263;1259;59687;-54
2023/03/07 11:55:24;;;;;;;13.70;10.10;;;;;;;6.39;50.41;99368.02;105140;1262;65219;-54
2023/03/07 11:58:31;;;;;;;14.60;10.10;;;;;;;6.38;50.14;99366.87;105219;1259;62746;-54
2023/03/07 12:01:24;;;;;;;8.80;4.00;;;;;;;6.38;50.14;99369.84;105182;1259;64886;-54
2023/03/07 12:04:10;;;;;;;9.50;4.90;;;;;;;6.38;49.96;99373.52;105302;1261;60316;-54
2023/03/07 12:07:04;;;;;;;15.10;10.90;;;;;;;6.43;50.00;99371.88;105180;1259;60538;-52
2023/03/07 12:09:44;;;;;;;13.90;10.30;;;;;;;6.52;49.96;99368.76;105153;1259;64915;-54
2023/03/07 12:12:12;;;;;;;9.20;3.80;;;;;;;6.63;49.80;99370.35;105164;1262;70374;-54